sensor_id;sensor_type;location;lat;lon;timestamp;temperature;humidity
56240;DHT22;42154;51.992;5.896;2023-12-22T00:01:30;6.90;99.90
56240;DHT22;42154;51.992;5.896;2023-12-22T00:03:56;6.80;99.90
56240;DHT22;42154;51.992;5.896;2023-12-22T00:06:22;6.90;99.90
56240;DHT22;42154;51.992;5.896;2023-12-22T00:08:48;6.90;99.90
56240;DHT22;42154;51.992;5.896;2023-12-22T00:11:13;6.90;99.90
56240;DHT22;42154;51.992;5.896;2023-12-22T00:13:39;6.90;99.90
56240;DHT22;42154;51.992;5.896;2023-12-22T00:16:05;6.90;99.90
56240;DHT22;42154;51.992;5.896;2023-12-22T00:18:31;7.00;99.90
56240;DHT22;42154;51.992;5.896;2023-12-22T00:20:57;7.00;99.90
56240;DHT22;42154;51.992;5.896;2023-12-22T00:23:22;7.00;99.90
56240;DHT22;42154;51.992;5.896;2023-12-22T00:25:48;7.00;99.90
56240;DHT22;42154;51.992;5.896;2023-12-22T00:28:14;7.00;99.90
56240;DHT22;42154;51.992;5.896;2023-12-22T00:30:39;7.00;99.90
56240;DHT22;42154;51.992;5.896;2023-12-22T00:33:05;7.00;99.90
56240;DHT22;42154;51.992;5.896;2023-12-22T00:35:31;7.00;99.90
56240;DHT22;42154;51.992;5.896;2023-12-22T00:37:57;6.90;99.90
56240;DHT22;42154;51.992;5.896;2023-12-22T00:40:22;6.80;99.90
56240;DHT22;42154;51.992;5.896;2023-12-22T00:42:48;6.70;99.90
56240;DHT22;42154;51.992;5.896;2023-12-22T00:45:14;6.60;99.90
56240;DHT22;42154;51.992;5.896;2023-12-22T00:47:40;6.50;99.90
56240;DHT22;42154;51.992;5.896;2023-12-22T00:50:06;6.50;99.90
56240;DHT22;42154;51.992;5.896;2023-12-22T00:52:33;6.50;99.90
56240;DHT22;42154;51.992;5.896;2023-12-22T00:54:59;6.40;99.90
56240;DHT22;42154;51.992;5.896;2023-12-22T00:57:25;6.40;99.90
56240;DHT22;42154;51.992;5.896;2023-12-22T00:59:51;6.30;99.90
56240;DHT22;42154;51.992;5.896;2023-12-22T01:02:17;6.40;99.90
56240;DHT22;42154;51.992;5.896;2023-12-22T01:04:44;6.40;99.90
56240;DHT22;42154;51.992;5.896;2023-12-22T01:07:10;6.30;99.90
56240;DHT22;42154;51.992;5.896;2023-12-22T01:09:36;6.30;99.90
56240;DHT22;42154;51.992;5.896;2023-12-22T01:12:04;6.30;99.90
56240;DHT22;42154;51.992;5.896;2023-12-22T01:14:30;6.40;99.90
56240;DHT22;42154;51.992;5.896;2023-12-22T01:16:56;6.40;99.90
56240;DHT22;42154;51.992;5.896;2023-12-22T01:19:22;6.30;99.90
56240;DHT22;42154;51.992;5.896;2023-12-22T01:21:48;6.40;99.90
56240;DHT22;42154;51.992;5.896;2023-12-22T01:24:13;6.30;99.90
56240;DHT22;42154;51.992;5.896;2023-12-22T01:26:39;6.20;99.90
56240;DHT22;42154;51.992;5.896;2023-12-22T01:29:05;6.20;99.90
56240;DHT22;42154;51.992;5.896;2023-12-22T01:31:30;6.20;99.90
56240;DHT22;42154;51.992;5.896;2023-12-22T01:33:56;6.20;99.90
56240;DHT22;42154;51.992;5.896;2023-12-22T01:36:22;6.20;99.90
56240;DHT22;42154;51.992;5.896;2023-12-22T01:38:47;6.30;99.90
56240;DHT22;42154;51.992;5.896;2023-12-22T01:41:13;6.30;99.90
56240;DHT22;42154;51.992;5.896;2023-12-22T01:43:39;6.30;99.90
56240;DHT22;42154;51.992;5.896;2023-12-22T01:46:06;6.30;99.90
56240;DHT22;42154;51.992;5.896;2023-12-22T01:48:33;6.40;99.90
56240;DHT22;42154;51.992;5.896;2023-12-22T01:51:01;6.40;99.90
56240;DHT22;42154;51.992;5.896;2023-12-22T01:53:28;6.40;99.90
56240;DHT22;42154;51.992;5.896;2023-12-22T01:55:55;6.50;99.90
56240;DHT22;42154;51.992;5.896;2023-12-22T01:58:23;6.30;99.90
56240;DHT22;42154;51.992;5.896;2023-12-22T02:00:49;6.30;99.90
56240;DHT22;42154;51.992;5.896;2023-12-22T02:03:15;6.30;99.90
56240;DHT22;42154;51.992;5.896;2023-12-22T02:05:42;6.20;99.90
56240;DHT22;42154;51.992;5.896;2023-12-22T02:08:09;6.30;99.90
56240;DHT22;42154;51.992;5.896;2023-12-22T02:10:36;6.30;99.90
56240;DHT22;42154;51.992;5.896;2023-12-22T02:13:03;6.30;99.90
56240;DHT22;42154;51.992;5.896;2023-12-22T02:15:30;6.30;99.90
56240;DHT22;42154;51.992;5.896;2023-12-22T02:18:04;6.30;99.90
56240;DHT22;42154;51.992;5.896;2023-12-22T02:20:32;6.30;99.90
56240;DHT22;42154;51.992;5.896;2023-12-22T02:22:58;6.30;99.90
56240;DHT22;42154;51.992;5.896;2023-12-22T02:25:23;6.30;99.90
56240;DHT22;42154;51.992;5.896;2023-12-22T02:27:52;6.30;99.90
56240;DHT22;42154;51.992;5.896;2023-12-22T02:30:34;6.30;99.90
56240;DHT22;42154;51.992;5.896;2023-12-22T02:33:04;6.30;99.90
56240;DHT22;42154;51.992;5.896;2023-12-22T02:35:33;6.40;99.90
56240;DHT22;42154;51.992;5.896;2023-12-22T02:38:01;6.30;99.90
56240;DHT22;42154;51.992;5.896;2023-12-22T02:40:28;6.30;99.90
56240;DHT22;42154;51.992;5.896;2023-12-22T02:42:55;6.40;99.90
56240;DHT22;42154;51.992;5.896;2023-12-22T02:45:21;6.40;99.90
56240;DHT22;42154;51.992;5.896;2023-12-22T02:47:47;6.40;99.90
56240;DHT22;42154;51.992;5.896;2023-12-22T02:50:15;6.50;99.90
56240;DHT22;42154;51.992;5.896;2023-12-22T02:52:41;6.50;99.90
56240;DHT22;42154;51.992;5.896;2023-12-22T02:55:07;6.50;99.90
56240;DHT22;42154;51.992;5.896;2023-12-22T02:57:33;6.50;99.90
56240;DHT22;42154;51.992;5.896;2023-12-22T02:59:59;6.60;99.90
56240;DHT22;42154;51.992;5.896;2023-12-22T03:02:25;6.60;99.90
56240;DHT22;42154;51.992;5.896;2023-12-22T03:04:51;6.60;99.90
56240;DHT22;42154;51.992;5.896;2023-12-22T03:07:17;6.60;99.90
56240;DHT22;42154;51.992;5.896;2023-12-22T03:09:43;6.60;99.90
56240;DHT22;42154;51.992;5.896;2023-12-22T03:12:09;6.60;99.90
56240;DHT22;42154;51.992;5.896;2023-12-22T03:14:36;6.50;99.90
56240;DHT22;42154;51.992;5.896;2023-12-22T03:17:03;6.60;99.90
56240;DHT22;42154;51.992;5.896;2023-12-22T03:19:29;6.60;99.90
56240;DHT22;42154;51.992;5.896;2023-12-22T03:21:55;6.70;99.90
56240;DHT22;42154;51.992;5.896;2023-12-22T03:24:25;6.70;99.90
56240;DHT22;42154;51.992;5.896;2023-12-22T03:26:52;6.50;99.90
56240;DHT22;42154;51.992;5.896;2023-12-22T03:29:18;6.20;99.90
56240;DHT22;42154;51.992;5.896;2023-12-22T03:31:45;5.80;99.90
56240;DHT22;42154;51.992;5.896;2023-12-22T03:34:11;5.60;99.90
56240;DHT22;42154;51.992;5.896;2023-12-22T03:36:36;5.40;99.90
56240;DHT22;42154;51.992;5.896;2023-12-22T03:39:03;5.20;99.90
56240;DHT22;42154;51.992;5.896;2023-12-22T03:41:29;5.10;99.90
56240;DHT22;42154;51.992;5.896;2023-12-22T03:43:56;5.10;99.90
56240;DHT22;42154;51.992;5.896;2023-12-22T03:46:22;5.10;99.90
56240;DHT22;42154;51.992;5.896;2023-12-22T03:48:49;5.00;99.90
56240;DHT22;42154;51.992;5.896;2023-12-22T03:51:15;5.00;99.90
56240;DHT22;42154;51.992;5.896;2023-12-22T03:53:41;5.10;99.90
56240;DHT22;42154;51.992;5.896;2023-12-22T03:56:08;5.10;99.90
56240;DHT22;42154;51.992;5.896;2023-12-22T03:58:35;5.00;99.90
56240;DHT22;42154;51.992;5.896;2023-12-22T04:01:01;5.10;99.90
56240;DHT22;42154;51.992;5.896;2023-12-22T04:03:26;5.20;99.90
56240;DHT22;42154;51.992;5.896;2023-12-22T04:05:52;5.10;99.90
56240;DHT22;42154;51.992;5.896;2023-12-22T04:08:18;5.10;99.90
56240;DHT22;42154;51.992;5.896;2023-12-22T04:10:46;5.10;99.90
56240;DHT22;42154;51.992;5.896;2023-12-22T04:13:12;5.10;99.90
56240;DHT22;42154;51.992;5.896;2023-12-22T04:15:38;5.10;99.90
56240;DHT22;42154;51.992;5.896;2023-12-22T04:18:03;5.10;99.90
56240;DHT22;42154;51.992;5.896;2023-12-22T04:20:29;5.20;99.90
56240;DHT22;42154;51.992;5.896;2023-12-22T04:22:55;5.20;99.90
56240;DHT22;42154;51.992;5.896;2023-12-22T04:25:20;5.30;99.90
56240;DHT22;42154;51.992;5.896;2023-12-22T04:27:48;5.40;99.90
56240;DHT22;42154;51.992;5.896;2023-12-22T04:30:15;5.40;99.90
56240;DHT22;42154;51.992;5.896;2023-12-22T04:32:41;5.50;99.90
56240;DHT22;42154;51.992;5.896;2023-12-22T04:35:07;5.50;99.90
56240;DHT22;42154;51.992;5.896;2023-12-22T04:37:33;5.60;99.90
56240;DHT22;42154;51.992;5.896;2023-12-22T04:39:59;5.60;99.90
56240;DHT22;42154;51.992;5.896;2023-12-22T04:42:24;5.70;99.90
56240;DHT22;42154;51.992;5.896;2023-12-22T04:44:53;5.70;99.90
56240;DHT22;42154;51.992;5.896;2023-12-22T04:47:19;5.70;99.90
56240;DHT22;42154;51.992;5.896;2023-12-22T04:49:45;5.90;99.90
56240;DHT22;42154;51.992;5.896;2023-12-22T04:52:11;5.80;99.90
56240;DHT22;42154;51.992;5.896;2023-12-22T04:54:37;5.90;99.90
56240;DHT22;42154;51.992;5.896;2023-12-22T04:57:04;5.90;99.90
56240;DHT22;42154;51.992;5.896;2023-12-22T04:59:30;6.00;99.90
56240;DHT22;42154;51.992;5.896;2023-12-22T05:01:56;6.10;99.90
56240;DHT22;42154;51.992;5.896;2023-12-22T05:04:21;6.10;99.90
56240;DHT22;42154;51.992;5.896;2023-12-22T05:06:48;6.10;99.90
56240;DHT22;42154;51.992;5.896;2023-12-22T05:09:14;6.10;99.90
56240;DHT22;42154;51.992;5.896;2023-12-22T05:11:39;6.20;99.90
56240;DHT22;42154;51.992;5.896;2023-12-22T05:14:05;6.20;99.90
56240;DHT22;42154;51.992;5.896;2023-12-22T05:16:31;6.20;99.90
56240;DHT22;42154;51.992;5.896;2023-12-22T05:19:00;6.30;99.90
56240;DHT22;42154;51.992;5.896;2023-12-22T05:21:26;6.30;99.90
56240;DHT22;42154;51.992;5.896;2023-12-22T05:23:53;6.20;99.90
56240;DHT22;42154;51.992;5.896;2023-12-22T05:26:20;6.20;99.90
56240;DHT22;42154;51.992;5.896;2023-12-22T05:28:46;6.20;99.90
56240;DHT22;42154;51.992;5.896;2023-12-22T05:31:12;6.20;99.90
56240;DHT22;42154;51.992;5.896;2023-12-22T05:33:38;6.20;99.90
56240;DHT22;42154;51.992;5.896;2023-12-22T05:36:04;6.20;99.90
56240;DHT22;42154;51.992;5.896;2023-12-22T05:38:30;6.20;99.90
56240;DHT22;42154;51.992;5.896;2023-12-22T05:40:57;6.20;99.90
56240;DHT22;42154;51.992;5.896;2023-12-22T05:43:22;6.20;99.90
56240;DHT22;42154;51.992;5.896;2023-12-22T05:45:48;6.20;99.90
56240;DHT22;42154;51.992;5.896;2023-12-22T05:48:14;6.20;99.90
56240;DHT22;42154;51.992;5.896;2023-12-22T05:50:39;6.20;99.90
56240;DHT22;42154;51.992;5.896;2023-12-22T05:53:05;6.30;99.90
56240;DHT22;42154;51.992;5.896;2023-12-22T05:55:31;6.40;99.90
56240;DHT22;42154;51.992;5.896;2023-12-22T05:57:57;6.50;99.90
56240;DHT22;42154;51.992;5.896;2023-12-22T06:00:22;6.40;99.90
56240;DHT22;42154;51.992;5.896;2023-12-22T06:02:48;6.40;99.90
56240;DHT22;42154;51.992;5.896;2023-12-22T06:05:14;6.40;99.90
56240;DHT22;42154;51.992;5.896;2023-12-22T06:07:40;6.50;99.90
56240;DHT22;42154;51.992;5.896;2023-12-22T06:10:06;6.30;99.90
56240;DHT22;42154;51.992;5.896;2023-12-22T06:12:35;6.50;99.90
56240;DHT22;42154;51.992;5.896;2023-12-22T06:15:01;6.50;99.90
56240;DHT22;42154;51.992;5.896;2023-12-22T06:17:26;6.60;99.90
56240;DHT22;42154;51.992;5.896;2023-12-22T06:19:53;6.60;99.90
56240;DHT22;42154;51.992;5.896;2023-12-22T06:22:19;6.70;99.90
56240;DHT22;42154;51.992;5.896;2023-12-22T06:24:45;6.60;99.90
56240;DHT22;42154;51.992;5.896;2023-12-22T06:27:10;6.70;99.90
56240;DHT22;42154;51.992;5.896;2023-12-22T06:29:37;6.70;99.90
56240;DHT22;42154;51.992;5.896;2023-12-22T06:32:03;6.80;99.90
56240;DHT22;42154;51.992;5.896;2023-12-22T06:34:31;6.80;99.90
56240;DHT22;42154;51.992;5.896;2023-12-22T06:36:57;6.90;99.90
56240;DHT22;42154;51.992;5.896;2023-12-22T06:39:23;6.90;99.90
56240;DHT22;42154;51.992;5.896;2023-12-22T06:41:49;6.90;99.90
56240;DHT22;42154;51.992;5.896;2023-12-22T06:44:14;7.00;99.90
56240;DHT22;42154;51.992;5.896;2023-12-22T06:46:40;7.10;99.90
56240;DHT22;42154;51.992;5.896;2023-12-22T06:49:06;7.00;99.90
56240;DHT22;42154;51.992;5.896;2023-12-22T06:51:32;7.20;99.90
56240;DHT22;42154;51.992;5.896;2023-12-22T06:54:01;7.30;99.90
56240;DHT22;42154;51.992;5.896;2023-12-22T06:56:29;7.40;99.90
56240;DHT22;42154;51.992;5.896;2023-12-22T06:58:56;7.50;99.90
56240;DHT22;42154;51.992;5.896;2023-12-22T07:01:31;7.50;99.90
56240;DHT22;42154;51.992;5.896;2023-12-22T07:03:57;7.60;99.90
56240;DHT22;42154;51.992;5.896;2023-12-22T07:06:26;7.70;99.90
56240;DHT22;42154;51.992;5.896;2023-12-22T07:11:41;7.70;99.90
56240;DHT22;42154;51.992;5.896;2023-12-22T07:14:07;7.80;99.90
56240;DHT22;42154;51.992;5.896;2023-12-22T07:16:34;7.80;99.90
56240;DHT22;42154;51.992;5.896;2023-12-22T07:18:59;7.80;99.90
56240;DHT22;42154;51.992;5.896;2023-12-22T07:21:26;7.90;99.90
56240;DHT22;42154;51.992;5.896;2023-12-22T07:23:52;7.90;99.90
56240;DHT22;42154;51.992;5.896;2023-12-22T07:26:17;7.90;99.90
56240;DHT22;42154;51.992;5.896;2023-12-22T07:28:46;7.90;99.90
56240;DHT22;42154;51.992;5.896;2023-12-22T07:31:12;8.00;99.90
56240;DHT22;42154;51.992;5.896;2023-12-22T07:33:37;8.00;99.90
56240;DHT22;42154;51.992;5.896;2023-12-22T07:36:03;8.00;99.90
56240;DHT22;42154;51.992;5.896;2023-12-22T07:38:29;8.00;99.90
56240;DHT22;42154;51.992;5.896;2023-12-22T07:40:55;8.00;99.90
56240;DHT22;42154;51.992;5.896;2023-12-22T07:43:21;8.10;99.90
56240;DHT22;42154;51.992;5.896;2023-12-22T07:45:46;8.10;99.90
56240;DHT22;42154;51.992;5.896;2023-12-22T07:48:13;8.10;99.90
56240;DHT22;42154;51.992;5.896;2023-12-22T07:50:40;8.10;99.90
56240;DHT22;42154;51.992;5.896;2023-12-22T07:53:07;8.10;99.90
56240;DHT22;42154;51.992;5.896;2023-12-22T07:55:34;8.10;99.90
56240;DHT22;42154;51.992;5.896;2023-12-22T07:58:00;8.20;99.90
56240;DHT22;42154;51.992;5.896;2023-12-22T08:00:25;8.20;99.90
56240;DHT22;42154;51.992;5.896;2023-12-22T08:02:51;8.20;99.90
56240;DHT22;42154;51.992;5.896;2023-12-22T08:05:18;8.30;99.90
56240;DHT22;42154;51.992;5.896;2023-12-22T08:07:44;8.20;99.90
56240;DHT22;42154;51.992;5.896;2023-12-22T08:10:10;8.30;99.90
56240;DHT22;42154;51.992;5.896;2023-12-22T08:12:36;8.30;99.90
56240;DHT22;42154;51.992;5.896;2023-12-22T08:15:03;8.30;99.90
56240;DHT22;42154;51.992;5.896;2023-12-22T08:17:29;8.40;99.90
56240;DHT22;42154;51.992;5.896;2023-12-22T08:19:54;8.40;99.90
56240;DHT22;42154;51.992;5.896;2023-12-22T08:22:21;8.40;99.90
56240;DHT22;42154;51.992;5.896;2023-12-22T08:24:48;8.30;99.90
56240;DHT22;42154;51.992;5.896;2023-12-22T08:27:14;8.20;99.90
56240;DHT22;42154;51.992;5.896;2023-12-22T08:29:40;8.20;99.90
56240;DHT22;42154;51.992;5.896;2023-12-22T08:32:06;8.10;99.90
56240;DHT22;42154;51.992;5.896;2023-12-22T08:34:32;8.10;99.90
56240;DHT22;42154;51.992;5.896;2023-12-22T08:36:57;8.10;99.90
56240;DHT22;42154;51.992;5.896;2023-12-22T08:39:23;8.10;99.90
56240;DHT22;42154;51.992;5.896;2023-12-22T08:41:52;8.10;99.90
56240;DHT22;42154;51.992;5.896;2023-12-22T08:44:18;8.10;99.90
56240;DHT22;42154;51.992;5.896;2023-12-22T08:46:44;8.10;99.90
56240;DHT22;42154;51.992;5.896;2023-12-22T08:49:10;8.10;99.90
56240;DHT22;42154;51.992;5.896;2023-12-22T08:51:36;8.10;99.90
56240;DHT22;42154;51.992;5.896;2023-12-22T08:54:02;8.10;99.90
56240;DHT22;42154;51.992;5.896;2023-12-22T08:56:30;8.10;99.90
56240;DHT22;42154;51.992;5.896;2023-12-22T08:58:55;8.20;99.90
56240;DHT22;42154;51.992;5.896;2023-12-22T09:01:24;8.10;99.90
56240;DHT22;42154;51.992;5.896;2023-12-22T09:03:50;8.20;99.90
56240;DHT22;42154;51.992;5.896;2023-12-22T09:06:16;8.20;99.90
56240;DHT22;42154;51.992;5.896;2023-12-22T09:08:43;8.20;99.90
56240;DHT22;42154;51.992;5.896;2023-12-22T09:11:11;8.30;99.90
56240;DHT22;42154;51.992;5.896;2023-12-22T09:13:37;8.40;99.90
56240;DHT22;42154;51.992;5.896;2023-12-22T09:16:04;8.40;99.90
56240;DHT22;42154;51.992;5.896;2023-12-22T09:18:31;8.40;99.90
56240;DHT22;42154;51.992;5.896;2023-12-22T09:20:57;8.40;99.90
56240;DHT22;42154;51.992;5.896;2023-12-22T09:23:23;8.40;99.90
56240;DHT22;42154;51.992;5.896;2023-12-22T09:25:49;8.50;99.90
56240;DHT22;42154;51.992;5.896;2023-12-22T09:28:15;8.50;99.90
56240;DHT22;42154;51.992;5.896;2023-12-22T09:30:41;8.50;99.90
56240;DHT22;42154;51.992;5.896;2023-12-22T09:33:11;8.50;99.90
56240;DHT22;42154;51.992;5.896;2023-12-22T09:35:37;8.50;99.90
56240;DHT22;42154;51.992;5.896;2023-12-22T09:38:03;8.60;99.90
56240;DHT22;42154;51.992;5.896;2023-12-22T09:40:29;8.60;99.90
56240;DHT22;42154;51.992;5.896;2023-12-22T09:42:57;8.60;99.90
56240;DHT22;42154;51.992;5.896;2023-12-22T09:45:24;8.70;99.90
56240;DHT22;42154;51.992;5.896;2023-12-22T09:47:50;8.80;99.90
56240;DHT22;42154;51.992;5.896;2023-12-22T09:50:17;8.80;99.90
56240;DHT22;42154;51.992;5.896;2023-12-22T09:52:43;8.80;99.90
56240;DHT22;42154;51.992;5.896;2023-12-22T09:55:10;8.80;99.90
56240;DHT22;42154;51.992;5.896;2023-12-22T09:57:37;8.70;99.90
56240;DHT22;42154;51.992;5.896;2023-12-22T10:00:08;8.70;99.90
56240;DHT22;42154;51.992;5.896;2023-12-22T10:02:34;8.70;99.90
56240;DHT22;42154;51.992;5.896;2023-12-22T10:05:01;8.70;99.90
56240;DHT22;42154;51.992;5.896;2023-12-22T10:07:28;8.70;99.90
56240;DHT22;42154;51.992;5.896;2023-12-22T10:09:54;8.60;99.90
56240;DHT22;42154;51.992;5.896;2023-12-22T10:12:21;8.60;99.90
56240;DHT22;42154;51.992;5.896;2023-12-22T10:14:48;8.60;99.90
56240;DHT22;42154;51.992;5.896;2023-12-22T10:17:15;8.60;99.90
56240;DHT22;42154;51.992;5.896;2023-12-22T10:19:42;8.50;99.90
56240;DHT22;42154;51.992;5.896;2023-12-22T10:22:08;8.60;99.90
56240;DHT22;42154;51.992;5.896;2023-12-22T10:24:45;8.60;99.90
56240;DHT22;42154;51.992;5.896;2023-12-22T10:27:16;8.60;99.90
56240;DHT22;42154;51.992;5.896;2023-12-22T10:29:56;8.60;99.90
56240;DHT22;42154;51.992;5.896;2023-12-22T10:32:22;8.60;99.90
56240;DHT22;42154;51.992;5.896;2023-12-22T10:34:50;8.70;99.90
56240;DHT22;42154;51.992;5.896;2023-12-22T10:37:16;8.80;99.90
56240;DHT22;42154;51.992;5.896;2023-12-22T10:39:42;8.80;99.90
56240;DHT22;42154;51.992;5.896;2023-12-22T10:42:09;8.90;99.90
56240;DHT22;42154;51.992;5.896;2023-12-22T10:44:35;9.00;99.90
56240;DHT22;42154;51.992;5.896;2023-12-22T10:47:05;9.10;99.90
56240;DHT22;42154;51.992;5.896;2023-12-22T10:49:31;9.10;99.90
56240;DHT22;42154;51.992;5.896;2023-12-22T10:51:57;9.30;99.90
56240;DHT22;42154;51.992;5.896;2023-12-22T10:54:22;9.30;99.90
56240;DHT22;42154;51.992;5.896;2023-12-22T10:56:49;9.30;99.90
56240;DHT22;42154;51.992;5.896;2023-12-22T10:59:23;9.30;99.90
56240;DHT22;42154;51.992;5.896;2023-12-22T11:01:51;9.30;99.90
56240;DHT22;42154;51.992;5.896;2023-12-22T11:04:18;9.30;99.90
56240;DHT22;42154;51.992;5.896;2023-12-22T11:06:47;9.30;99.90
56240;DHT22;42154;51.992;5.896;2023-12-22T11:09:17;9.20;99.90
56240;DHT22;42154;51.992;5.896;2023-12-22T11:11:45;9.30;99.90
56240;DHT22;42154;51.992;5.896;2023-12-22T11:14:12;9.30;99.90
56240;DHT22;42154;51.992;5.896;2023-12-22T11:16:41;9.30;99.90
56240;DHT22;42154;51.992;5.896;2023-12-22T11:19:14;9.30;99.90
56240;DHT22;42154;51.992;5.896;2023-12-22T11:21:40;9.30;99.90
56240;DHT22;42154;51.992;5.896;2023-12-22T11:24:07;9.40;99.90
56240;DHT22;42154;51.992;5.896;2023-12-22T11:26:33;9.40;99.90
56240;DHT22;42154;51.992;5.896;2023-12-22T11:28:59;9.40;99.90
56240;DHT22;42154;51.992;5.896;2023-12-22T11:31:27;9.50;99.90
56240;DHT22;42154;51.992;5.896;2023-12-22T11:33:58;9.50;99.90
56240;DHT22;42154;51.992;5.896;2023-12-22T11:36:25;9.60;99.90
56240;DHT22;42154;51.992;5.896;2023-12-22T11:38:52;9.60;99.90
56240;DHT22;42154;51.992;5.896;2023-12-22T11:41:20;9.70;99.90
56240;DHT22;42154;51.992;5.896;2023-12-22T11:43:47;9.70;99.90
56240;DHT22;42154;51.992;5.896;2023-12-22T11:46:16;9.70;99.90
56240;DHT22;42154;51.992;5.896;2023-12-22T11:48:49;9.80;99.90
56240;DHT22;42154;51.992;5.896;2023-12-22T11:51:16;9.80;99.90
56240;DHT22;42154;51.992;5.896;2023-12-22T11:53:42;9.90;99.90
56240;DHT22;42154;51.992;5.896;2023-12-22T11:56:09;9.90;99.90
56240;DHT22;42154;51.992;5.896;2023-12-22T11:58:54;9.90;99.90
56240;DHT22;42154;51.992;5.896;2023-12-22T12:01:22;9.90;99.90
56240;DHT22;42154;51.992;5.896;2023-12-22T12:03:51;9.80;99.90
56240;DHT22;42154;51.992;5.896;2023-12-22T12:08:51;9.80;99.90
56240;DHT22;42154;51.992;5.896;2023-12-22T12:12:08;9.80;99.90
56240;DHT22;42154;51.992;5.896;2023-12-22T12:14:14;9.80;99.90
56240;DHT22;42154;51.992;5.896;2023-12-22T12:16:42;9.80;99.90
56240;DHT22;42154;51.992;5.896;2023-12-22T12:19:09;9.80;99.90
56240;DHT22;42154;51.992;5.896;2023-12-22T12:21:35;9.80;99.90
56240;DHT22;42154;51.992;5.896;2023-12-22T12:24:04;9.80;99.90
56240;DHT22;42154;51.992;5.896;2023-12-22T12:26:32;9.90;99.90
56240;DHT22;42154;51.992;5.896;2023-12-22T12:28:59;9.90;99.90
56240;DHT22;42154;51.992;5.896;2023-12-22T12:31:36;9.90;99.90
56240;DHT22;42154;51.992;5.896;2023-12-22T12:34:07;10.00;99.90
56240;DHT22;42154;51.992;5.896;2023-12-22T12:36:34;9.90;99.90
56240;DHT22;42154;51.992;5.896;2023-12-22T12:39:06;9.90;99.90
56240;DHT22;42154;51.992;5.896;2023-12-22T12:41:40;9.90;99.90
56240;DHT22;42154;51.992;5.896;2023-12-22T12:44:06;9.90;99.90
56240;DHT22;42154;51.992;5.896;2023-12-22T12:46:40;9.90;99.90
56240;DHT22;42154;51.992;5.896;2023-12-22T12:49:09;10.00;99.90
56240;DHT22;42154;51.992;5.896;2023-12-22T12:51:44;9.90;99.90
56240;DHT22;42154;51.992;5.896;2023-12-22T12:54:10;10.00;99.90
56240;DHT22;42154;51.992;5.896;2023-12-22T12:56:42;10.00;99.90
56240;DHT22;42154;51.992;5.896;2023-12-22T12:59:15;10.10;99.90
56240;DHT22;42154;51.992;5.896;2023-12-22T13:01:46;10.10;99.90
56240;DHT22;42154;51.992;5.896;2023-12-22T13:04:12;10.10;99.90
56240;DHT22;42154;51.992;5.896;2023-12-22T13:06:51;10.10;99.90
56240;DHT22;42154;51.992;5.896;2023-12-22T13:09:18;10.20;99.90
56240;DHT22;42154;51.992;5.896;2023-12-22T13:11:45;10.10;99.90
56240;DHT22;42154;51.992;5.896;2023-12-22T13:14:21;10.20;99.90
56240;DHT22;42154;51.992;5.896;2023-12-22T13:16:47;10.20;99.90
56240;DHT22;42154;51.992;5.896;2023-12-22T13:19:13;10.20;99.90
56240;DHT22;42154;51.992;5.896;2023-12-22T13:21:39;10.20;99.90
56240;DHT22;42154;51.992;5.896;2023-12-22T13:24:15;10.30;99.90
56240;DHT22;42154;51.992;5.896;2023-12-22T13:26:41;10.40;99.90
56240;DHT22;42154;51.992;5.896;2023-12-22T13:29:08;10.40;99.90
56240;DHT22;42154;51.992;5.896;2023-12-22T13:31:37;10.40;99.90
56240;DHT22;42154;51.992;5.896;2023-12-22T13:34:11;10.40;99.90
56240;DHT22;42154;51.992;5.896;2023-12-22T13:36:38;10.40;99.90
56240;DHT22;42154;51.992;5.896;2023-12-22T13:39:07;10.40;99.90
56240;DHT22;42154;51.992;5.896;2023-12-22T13:41:40;10.40;99.90
56240;DHT22;42154;51.992;5.896;2023-12-22T13:44:07;10.40;99.90
56240;DHT22;42154;51.992;5.896;2023-12-22T13:46:34;10.40;99.90
56240;DHT22;42154;51.992;5.896;2023-12-22T13:49:01;10.30;99.90
56240;DHT22;42154;51.992;5.896;2023-12-22T13:51:44;10.40;99.90
56240;DHT22;42154;51.992;5.896;2023-12-22T13:54:10;10.40;99.90
56240;DHT22;42154;51.992;5.896;2023-12-22T13:56:37;10.40;99.90
56240;DHT22;42154;51.992;5.896;2023-12-22T13:59:06;10.40;99.90
56240;DHT22;42154;51.992;5.896;2023-12-22T14:01:32;10.30;99.90
56240;DHT22;42154;51.992;5.896;2023-12-22T14:03:58;10.30;99.90
56240;DHT22;42154;51.992;5.896;2023-12-22T14:06:26;10.20;99.90
56240;DHT22;42154;51.992;5.896;2023-12-22T14:08:52;10.20;99.90
56240;DHT22;42154;51.992;5.896;2023-12-22T14:11:18;10.20;99.90
56240;DHT22;42154;51.992;5.896;2023-12-22T14:13:44;10.20;99.90
56240;DHT22;42154;51.992;5.896;2023-12-22T14:16:09;10.20;99.90
56240;DHT22;42154;51.992;5.896;2023-12-22T14:18:35;10.20;99.90
56240;DHT22;42154;51.992;5.896;2023-12-22T14:21:01;10.20;99.90
56240;DHT22;42154;51.992;5.896;2023-12-22T14:23:29;10.20;99.90
56240;DHT22;42154;51.992;5.896;2023-12-22T14:25:55;10.20;99.90
56240;DHT22;42154;51.992;5.896;2023-12-22T14:28:20;10.20;99.90
56240;DHT22;42154;51.992;5.896;2023-12-22T14:30:46;10.10;99.90
56240;DHT22;42154;51.992;5.896;2023-12-22T14:33:12;10.00;99.90
56240;DHT22;42154;51.992;5.896;2023-12-22T14:35:38;9.90;99.90
56240;DHT22;42154;51.992;5.896;2023-12-22T14:38:04;9.80;99.90
56240;DHT22;42154;51.992;5.896;2023-12-22T14:40:30;9.70;99.90
56240;DHT22;42154;51.992;5.896;2023-12-22T14:42:56;9.70;99.90
56240;DHT22;42154;51.992;5.896;2023-12-22T14:45:21;9.70;99.90
56240;DHT22;42154;51.992;5.896;2023-12-22T14:47:48;9.80;99.90
56240;DHT22;42154;51.992;5.896;2023-12-22T14:50:14;9.80;99.90
56240;DHT22;42154;51.992;5.896;2023-12-22T14:52:40;9.80;99.90
56240;DHT22;42154;51.992;5.896;2023-12-22T14:55:06;9.90;99.90
56240;DHT22;42154;51.992;5.896;2023-12-22T14:57:32;9.90;99.90
56240;DHT22;42154;51.992;5.896;2023-12-22T14:59:59;9.90;99.90
56240;DHT22;42154;51.992;5.896;2023-12-22T15:02:25;9.90;99.90
56240;DHT22;42154;51.992;5.896;2023-12-22T15:04:51;9.90;99.90
56240;DHT22;42154;51.992;5.896;2023-12-22T15:07:17;9.90;99.90
56240;DHT22;42154;51.992;5.896;2023-12-22T15:09:43;10.00;99.90
56240;DHT22;42154;51.992;5.896;2023-12-22T15:12:11;10.00;99.90
56240;DHT22;42154;51.992;5.896;2023-12-22T15:14:37;10.00;99.90
56240;DHT22;42154;51.992;5.896;2023-12-22T15:17:03;10.00;99.90
56240;DHT22;42154;51.992;5.896;2023-12-22T15:19:29;10.00;99.90
56240;DHT22;42154;51.992;5.896;2023-12-22T15:21:54;10.00;99.90
56240;DHT22;42154;51.992;5.896;2023-12-22T15:24:20;10.00;99.90
56240;DHT22;42154;51.992;5.896;2023-12-22T15:26:46;10.00;99.90
56240;DHT22;42154;51.992;5.896;2023-12-22T15:29:12;10.00;99.90
56240;DHT22;42154;51.992;5.896;2023-12-22T15:31:37;10.00;99.90
56240;DHT22;42154;51.992;5.896;2023-12-22T15:34:04;10.00;99.90
56240;DHT22;42154;51.992;5.896;2023-12-22T15:36:30;10.00;99.90
56240;DHT22;42154;51.992;5.896;2023-12-22T15:38:56;10.00;99.90
56240;DHT22;42154;51.992;5.896;2023-12-22T15:41:22;10.00;99.90
56240;DHT22;42154;51.992;5.896;2023-12-22T15:43:48;10.00;99.90
56240;DHT22;42154;51.992;5.896;2023-12-22T15:46:14;10.00;99.90
56240;DHT22;42154;51.992;5.896;2023-12-22T15:48:39;10.00;99.90